City Ranch, California
Current Conditions -  °F | °C
As of 10:53 PM on Saturday 20 Dec 2014 (Local Time) from KPMD Reporting Station
Clear Clear  
Wind Chill: 45°   Ceiling: Unl
Heat Index: 49°   Visibility: 10mi
Dew Point: 45°   Wind: 8mph
Humidity: 86%   Direction: 300°WNW
Pressure: 30.22"   Gusts: NA
Location:  34.5959°N, 118.235°W
Report Text: KPMD 210653Z AUTO 30007KT 10SM CLR 09/07 A3022 RMK AO2 SLP229 T00940072
Loading
Personal Weather Stations






























Interactive Weather Map New forecast layout! Learn more

10-Day Weather Forecast

Advertisements
Track Severe Weather on mobile